Time;durP1;ratioP1;P1;durP2;ratioP2;P2;SDS_P1;SDS_P2;PMS_P1;PMS_P2;Temp;Humidity;BMP_temperature;BMP_pressure;BME280_temperature;BME280_humidity;BME280_pressure;Samples;Min_cycle;Max_cycle;Signal;HPM_P1;HPM_P2
2022/12/15 00:41:55;;;;;;;44.00;39.37;;;3.00;99.90;;;;;;11435139;22;20234;-83
2022/12/15 00:46:57;;;;;;;42.57;38.07;;;3.00;99.90;;;;;;10356409;28;20204;-80
2022/12/15 01:24:01;;;;;;;43.60;38.60;;;2.80;99.90;;;;;;10303946;28;20187;-83
2022/12/15 01:29:03;;;;;;;42.13;37.10;;;2.80;99.90;;;;;;10334616;28;20606;-83
2022/12/15 01:34:05;;;;;;;44.60;39.73;;;2.80;99.90;;;;;;10301566;28;20199;-83
2022/12/15 01:39:09;;;;;;;44.47;38.10;;;2.80;99.90;;;;;;10340502;28;20299;-84
2022/12/15 01:44:19;;;;;;;46.00;37.87;;;2.80;99.90;;;;;;10336984;28;20238;-84
2022/12/15 01:49:26;;;;;;;45.40;39.00;;;2.80;99.90;;;;;;10304133;28;20279;-84
2022/12/15 01:54:35;;;;;;;44.07;38.50;;;2.80;99.90;;;;;;10349586;28;20615;-83
2022/12/15 01:59:42;;;;;;;42.40;36.77;;;2.90;99.90;;;;;;10328597;28;20220;-83
2022/12/15 02:04:45;;;;;;;43.00;38.33;;;2.90;99.90;;;;;;10305282;28;20221;-84
2022/12/15 02:09:51;;;;;;;43.90;38.50;;;2.90;99.90;;;;;;10344575;28;20211;-83
2022/12/15 02:15:17;;;;;;;42.90;38.23;;;2.80;99.90;;;;;;10344935;28;20219;-85
2022/12/15 02:20:44;;;;;;;43.20;37.27;;;2.90;99.90;;;;;;10294333;28;20277;-84
2022/12/15 02:26:19;;;;;;;42.40;37.10;;;2.80;99.90;;;;;;10331071;28;20246;-85
2022/12/15 02:36:51;;;;;;;45.80;37.40;;;2.90;99.90;;;;;;10336085;28;20342;-85
2022/12/15 02:41:53;;;;;;;43.80;39.00;;;2.80;99.90;;;;;;10338608;28;20269;-85
2022/12/15 02:47:18;;;;;;;44.10;37.23;;;2.80;99.90;;;;;;10340413;28;20216;-81
2022/12/15 02:52:35;;;;;;;49.10;39.60;;;2.80;99.90;;;;;;10325617;28;20200;-85
2022/12/15 02:57:43;;;;;;;44.70;38.37;;;2.70;99.90;;;;;;10341876;28;20297;-85
2022/12/15 03:02:49;;;;;;;42.70;38.10;;;2.70;99.90;;;;;;10316921;28;20231;-84
2022/12/15 03:07:54;;;;;;;48.00;41.60;;;2.70;99.90;;;;;;10325569;28;20215;-85
2022/12/15 03:12:57;;;;;;;45.67;40.30;;;2.70;99.90;;;;;;10324325;28;20204;-84
2022/12/15 03:18:01;;;;;;;48.53;41.27;;;2.70;99.90;;;;;;10328568;28;20227;-84
2022/12/15 03:23:03;;;;;;;46.07;39.47;;;2.70;99.90;;;;;;10304946;28;20243;-84
2022/12/15 03:28:05;;;;;;;45.90;39.53;;;2.80;99.90;;;;;;10327217;28;20227;-85
2022/12/15 03:33:09;;;;;;;45.73;39.53;;;2.80;99.90;;;;;;10335148;28;20196;-83
2022/12/15 03:38:11;;;;;;;50.23;42.07;;;2.80;99.90;;;;;;10329058;28;20314;-85
2022/12/15 03:43:13;;;;;;;49.80;39.10;;;2.80;99.90;;;;;;10362160;28;20215;-85
2022/12/15 03:48:16;;;;;;;49.70;40.80;;;2.80;99.90;;;;;;10324680;28;20303;-85
2022/12/15 03:53:18;;;;;;;50.43;41.80;;;2.80;99.90;;;;;;10321079;28;20219;-85
2022/12/15 03:58:21;;;;;;;47.60;39.97;;;2.70;99.90;;;;;;10344327;28;20215;-84
2022/12/15 04:03:25;;;;;;;48.33;38.27;;;2.70;99.90;;;;;;10345791;28;20199;-84
2022/12/15 04:08:27;;;;;;;47.83;38.93;;;2.60;99.90;;;;;;10325333;28;20216;-82
2022/12/15 04:13:32;;;;;;;46.27;38.80;;;2.60;99.90;;;;;;10344456;28;20234;-83
2022/12/15 04:18:36;;;;;;;49.07;40.60;;;2.50;99.90;;;;;;10343317;28;20247;-82
2022/12/15 04:23:38;;;;;;;49.23;39.50;;;2.50;99.90;;;;;;10319244;28;20639;-84
2022/12/15 05:32:45;;;;;;;48.47;39.90;;;2.80;99.90;;;;;;10321307;28;20222;-84
2022/12/15 05:37:49;;;;;;;47.50;39.87;;;2.70;99.90;;;;;;10319378;28;20227;-84
2022/12/15 05:42:51;;;;;;;48.40;39.17;;;2.70;99.90;;;;;;10331893;28;20223;-81
2022/12/15 05:47:54;;;;;;;54.33;42.37;;;2.70;99.90;;;;;;10334117;28;20215;-85
2022/12/15 05:52:59;;;;;;;50.40;40.77;;;2.70;99.90;;;;;;10304102;28;20226;-85
2022/12/15 05:58:01;;;;;;;49.63;40.13;;;2.70;99.90;;;;;;10284690;28;20259;-83
2022/12/15 06:03:03;;;;;;;51.47;39.97;;;2.70;99.90;;;;;;10324485;28;20235;-84
2022/12/15 06:08:07;;;;;;;47.20;39.40;;;2.80;99.90;;;;;;10336376;28;20227;-85
2022/12/15 06:13:09;;;;;;;48.90;38.80;;;2.80;99.90;;;;;;10335028;28;20249;-85
2022/12/15 06:18:11;;;;;;;58.97;45.60;;;2.80;99.90;;;;;;10301008;28;20305;-85
2022/12/15 06:23:14;;;;;;;48.50;39.87;;;2.90;99.90;;;;;;10359302;28;20402;-87
2022/12/15 06:28:22;;;;;;;45.17;36.37;;;2.90;99.90;;;;;;10343980;28;20279;-86
2022/12/15 06:33:24;;;;;;;47.70;38.33;;;2.90;99.90;;;;;;10343745;28;20200;-85
2022/12/15 06:38:28;;;;;;;45.80;38.47;;;2.90;99.90;;;;;;10344833;28;20207;-85
2022/12/15 06:43:32;;;;;;;47.77;39.67;;;2.90;99.90;;;;;;10355377;28;20211;-89
2022/12/15 06:48:34;;;;;;;50.20;39.17;;;2.90;99.90;;;;;;10351048;28;20242;-84
2022/12/15 06:53:39;;;;;;;45.23;38.77;;;2.90;99.90;;;;;;10329292;28;20218;-84
2022/12/15 06:58:41;;;;;;;43.70;37.37;;;3.00;99.90;;;;;;10323724;28;20644;-87
2022/12/15 07:03:44;;;;;;;46.83;38.60;;;3.00;99.90;;;;;;10342807;28;20211;-87
2022/12/15 07:08:52;;;;;;;44.30;37.83;;;2.90;99.90;;;;;;10313450;28;20231;-84
2022/12/15 07:13:54;;;;;;;41.90;36.73;;;2.90;99.90;;;;;;10345537;28;20195;-87
2022/12/15 07:18:56;;;;;;;44.83;37.10;;;2.90;99.90;;;;;;10283752;28;20248;-86
2022/12/15 07:24:00;;;;;;;42.07;37.10;;;3.00;99.90;;;;;;10303857;28;20283;-86
2022/12/15 07:29:02;;;;;;;46.30;37.80;;;2.90;99.90;;;;;;10334925;28;20269;-85
2022/12/15 07:34:04;;;;;;;45.97;39.37;;;3.00;99.90;;;;;;10324474;28;20199;-85
2022/12/15 07:39:08;;;;;;;48.97;37.57;;;3.00;99.90;;;;;;10290499;28;20277;-84
2022/12/15 07:44:10;;;;;;;45.70;38.00;;;3.00;99.90;;;;;;10333011;28;20224;-84
2022/12/15 07:49:12;;;;;;;48.20;38.63;;;3.10;99.90;;;;;;10341399;28;20736;-83
2022/12/15 07:54:16;;;;;;;43.17;36.93;;;3.10;99.90;;;;;;10325376;28;20211;-85
2022/12/15 07:59:19;;;;;;;48.40;37.50;;;3.10;99.90;;;;;;10341994;28;20211;-85
2022/12/15 08:04:21;;;;;;;45.77;37.30;;;3.10;99.90;;;;;;10305826;28;20234;-83
2022/12/15 08:09:25;;;;;;;47.23;37.50;;;3.20;99.90;;;;;;10335038;28;20631;-83
2022/12/15 08:14:28;;;;;;;47.70;39.17;;;3.20;99.90;;;;;;10341404;28;20247;-83
2022/12/15 08:19:30;;;;;;;42.93;35.60;;;3.20;99.90;;;;;;10305634;28;20223;-82
2022/12/15 08:24:34;;;;;;;41.90;34.83;;;3.20;99.90;;;;;;10306426;28;20219;-82
2022/12/15 08:29:36;;;;;;;41.97;34.23;;;3.30;99.90;;;;;;10332273;28;20196;-83
2022/12/15 08:34:38;;;;;;;42.73;35.93;;;3.30;99.90;;;;;;10335569;28;20227;-81
2022/12/15 08:39:42;;;;;;;43.97;36.27;;;3.30;99.90;;;;;;10312349;28;20219;-82
2022/12/15 08:44:47;;;;;;;44.57;37.67;;;3.40;99.90;;;;;;10337900;28;20237;-83
2022/12/15 08:49:50;;;;;;;43.77;34.87;;;3.30;99.90;;;;;;10336551;28;20203;-81
2022/12/15 08:54:54;;;;;;;45.20;34.60;;;3.30;99.90;;;;;;10320280;28;20365;-82
2022/12/15 08:59:56;;;;;;;49.90;38.27;;;3.30;99.90;;;;;;10345486;28;20286;-83
2022/12/15 09:04:58;;;;;;;51.27;38.37;;;3.40;99.90;;;;;;10304422;28;20230;-82
2022/12/15 09:10:02;;;;;;;49.47;39.07;;;3.40;99.90;;;;;;10328390;28;20191;-81
2022/12/15 09:15:04;;;;;;;44.60;36.17;;;3.50;99.90;;;;;;10337670;28;20215;-83
2022/12/15 09:20:08;;;;;;;45.70;38.33;;;3.50;99.90;;;;;;10332482;28;20691;-82
2022/12/15 09:25:12;;;;;;;46.43;35.83;;;3.60;99.90;;;;;;10332253;28;20213;-82
2022/12/15 09:30:14;;;;;;;42.53;35.80;;;3.60;99.90;;;;;;10334915;28;20258;-84
2022/12/15 09:35:17;;;;;;;45.50;34.83;;;3.70;99.90;;;;;;10338259;28;20261;-82
2022/12/15 09:40:20;;;;;;;46.07;35.83;;;3.70;99.90;;;;;;10333549;28;20274;-83
2022/12/15 09:45:28;;;;;;;48.80;36.10;;;3.80;99.90;;;;;;10333747;28;20576;-82
2022/12/15 09:50:38;;;;;;;47.07;37.10;;;3.80;99.90;;;;;;10335530;28;20187;-82
2022/12/15 09:55:45;;;;;;;45.90;34.83;;;3.80;99.90;;;;;;10322307;28;20313;-81
2022/12/15 10:00:54;;;;;;;43.50;36.20;;;3.90;99.90;;;;;;10339917;28;20250;-85
2022/12/15 10:06:03;;;;;;;47.40;35.50;;;3.90;99.90;;;;;;10338918;28;20219;-84
2022/12/15 10:11:18;;;;;;;43.63;35.10;;;3.90;99.90;;;;;;10346940;28;20215;-84
2022/12/15 10:16:33;;;;;;;50.20;38.00;;;4.00;99.90;;;;;;10340118;28;20262;-81
2022/12/15 10:21:59;;;;;;;43.67;35.60;;;4.00;99.90;;;;;;10338390;28;20646;-82
2022/12/15 10:27:15;;;;;;;45.10;34.70;;;4.00;99.90;;;;;;10337031;28;20214;-81
2022/12/15 10:32:23;;;;;;;46.80;36.03;;;4.00;99.90;;;;;;10316749;28;20265;-82
2022/12/15 10:37:35;;;;;;;43.87;35.20;;;4.00;99.90;;;;;;10333435;28;20298;-81
2022/12/15 10:42:46;;;;;;;43.93;34.00;;;4.00;99.90;;;;;;10343825;28;20203;-81
2022/12/15 10:48:25;;;;;;;47.40;37.70;;;4.00;99.90;;;;;;10325970;28;20859;-84
2022/12/15 10:53:48;;;;;;;43.97;34.80;;;3.90;99.90;;;;;;10330686;28;20631;-83
2022/12/15 10:59:26;;;;;;;48.90;35.73;;;3.90;99.90;;;;;;10324891;28;20301;-85
2022/12/15 11:10:20;;;;;;;44.77;35.77;;;3.90;99.90;;;;;;10330632;28;20215;-83
2022/12/15 11:15:50;;;;;;;32.30;27.33;;;3.80;99.90;;;;;;10341101;28;20597;-82
2022/12/15 11:21:12;;;;;;;43.30;36.00;;;3.90;99.90;;;;;;10341314;28;20218;-82
2022/12/15 11:32:02;;;;;;;42.60;35.87;;;4.10;99.90;;;;;;10305978;28;20271;-83
2022/12/15 11:37:19;;;;;;;40.60;34.10;;;4.10;99.90;;;;;;10329495;28;20222;-83
2022/12/15 11:42:47;;;;;;;43.30;35.07;;;4.20;99.90;;;;;;10342638;28;20231;-84
2022/12/15 11:48:16;;;;;;;45.03;36.63;;;4.30;99.90;;;;;;10330783;28;20249;-81
2022/12/15 11:53:54;;;;;;;43.57;35.53;;;4.20;99.90;;;;;;10323917;28;20226;-83
2022/12/15 11:59:19;;;;;;;41.13;33.93;;;4.30;99.90;;;;;;10300388;28;20714;-83
2022/12/15 12:04:26;;;;;;;42.70;34.67;;;4.30;99.90;;;;;;10344422;28;20211;-84
2022/12/15 12:09:31;;;;;;;50.20;37.70;;;4.40;99.90;;;;;;10304412;28;20203;-85
2022/12/15 12:14:44;;;;;;;46.03;36.90;;;4.40;99.90;;;;;;10335192;28;20245;-83
2022/12/15 12:19:52;;;;;;;46.50;36.40;;;4.40;99.90;;;;;;10332939;28;20215;-85
2022/12/15 12:24:59;;;;;;;39.80;32.80;;;4.40;99.90;;;;;;10333632;28;20238;-84
2022/12/15 12:30:05;;;;;;;43.07;34.20;;;4.50;99.90;;;;;;10318562;28;20196;-85
2022/12/15 12:35:15;;;;;;;42.03;33.27;;;4.50;99.90;;;;;;10320805;28;20643;-85
2022/12/15 12:40:24;;;;;;;44.47;35.07;;;4.50;99.90;;;;;;10337993;28;20274;-83
2022/12/15 12:45:34;;;;;;;42.57;34.90;;;4.60;99.90;;;;;;10335086;28;20234;-81
2022/12/15 12:50:37;;;;;;;40.97;35.07;;;4.70;99.90;;;;;;10341770;28;20652;-83
2022/12/15 12:55:42;;;;;;;41.00;33.90;;;4.80;99.90;;;;;;10310325;28;20669;-83
2022/12/15 13:01:04;;;;;;;41.40;33.50;;;4.80;99.90;;;;;;10322166;28;20239;-83
2022/12/15 13:06:47;;;;;;;39.90;33.57;;;4.90;99.90;;;;;;10342552;28;20238;-86
2022/12/15 13:11:57;;;;;;;42.07;34.70;;;4.90;99.90;;;;;;10345091;28;20191;-83
2022/12/15 13:17:05;;;;;;;39.53;35.10;;;4.90;99.90;;;;;;10309977;28;20238;-83
2022/12/15 13:22:23;;;;;;;40.83;33.10;;;4.80;99.90;;;;;;10336937;28;20226;-83
2022/12/15 13:27:36;;;;;;;33.70;27.47;;;4.80;99.90;;;;;;10303196;28;20216;-81
2022/12/15 13:32:39;;;;;;;41.97;33.93;;;4.70;99.90;;;;;;10316132;28;20282;-82
2022/12/15 13:37:49;;;;;;;31.00;27.00;;;4.70;99.90;;;;;;10317168;28;20220;-81
2022/12/15 13:42:57;;;;;;;38.80;32.90;;;4.60;99.90;;;;;;10331386;28;20223;-82
2022/12/15 13:48:00;;;;;;;38.07;31.87;;;4.60;99.90;;;;;;10306801;28;20227;-84
2022/12/15 13:53:09;;;;;;;39.60;33.37;;;4.60;99.90;;;;;;10334935;28;20654;-85
2022/12/15 13:58:15;;;;;;;39.40;30.70;;;4.40;99.90;;;;;;10324356;28;20727;-83
2022/12/15 14:03:18;;;;;;;38.27;30.87;;;4.40;99.90;;;;;;10325730;28;20199;-85
2022/12/15 14:08:24;;;;;;;38.33;29.97;;;4.30;99.90;;;;;;10359924;28;20238;-84
2022/12/15 14:13:30;;;;;;;37.00;31.20;;;4.20;99.90;;;;;;10340326;28;20210;-85
2022/12/15 14:18:33;;;;;;;40.50;31.90;;;4.20;99.90;;;;;;10326553;28;20629;-84
2022/12/15 14:23:43;;;;;;;39.57;33.17;;;4.20;99.90;;;;;;10334762;28;20217;-83
2022/12/15 14:28:58;;;;;;;39.57;31.90;;;4.20;99.90;;;;;;10317750;28;20278;-85
2022/12/15 14:34:03;;;;;;;36.50;31.00;;;4.20;99.90;;;;;;10318391;28;20203;-83
2022/12/15 14:39:14;;;;;;;35.83;29.37;;;4.30;99.90;;;;;;10338178;28;20297;-82
2022/12/15 14:44:20;;;;;;;36.70;30.87;;;4.30;99.90;;;;;;10355075;28;20257;-83
2022/12/15 14:49:26;;;;;;;36.33;29.97;;;4.30;99.90;;;;;;10339994;28;20238;-85
2022/12/15 14:54:35;;;;;;;38.97;31.50;;;4.30;99.90;;;;;;10323614;28;20226;-85
2022/12/15 14:59:41;;;;;;;37.50;31.40;;;4.30;99.90;;;;;;10326313;28;20619;-84
2022/12/15 15:04:55;;;;;;;37.80;31.10;;;4.30;99.90;;;;;;10333577;28;20227;-84
2022/12/15 15:09:59;;;;;;;41.73;30.80;;;4.30;99.90;;;;;;10344040;28;20636;-85
2022/12/15 15:15:04;;;;;;;44.40;33.20;;;4.30;99.90;;;;;;10333125;28;20215;-84
2022/12/15 15:20:17;;;;;;;36.30;31.23;;;4.30;99.90;;;;;;10332613;28;20313;-84
2022/12/15 15:25:28;;;;;;;39.80;33.30;;;4.30;99.90;;;;;;10308919;28;20364;-84
2022/12/15 15:30:42;;;;;;;39.00;32.60;;;4.30;99.90;;;;;;10332876;28;20230;-84
2022/12/15 15:35:47;;;;;;;34.43;29.63;;;4.30;99.90;;;;;;10317553;28;20291;-84
2022/12/15 15:40:53;;;;;;;37.50;30.67;;;4.20;99.90;;;;;;10323727;28;20285;-84
2022/12/15 15:46:00;;;;;;;37.80;31.00;;;4.20;99.90;;;;;;10301165;28;20705;-85
2022/12/15 15:51:04;;;;;;;38.60;30.40;;;4.10;99.90;;;;;;10320269;28;20290;-84
2022/12/15 15:56:12;;;;;;;37.03;31.00;;;4.10;99.90;;;;;;10309242;28;20337;-84
2022/12/15 16:01:15;;;;;;;37.73;29.93;;;4.10;99.90;;;;;;10315055;28;20250;-83
2022/12/15 16:06:19;;;;;;;34.10;28.57;;;4.10;99.90;;;;;;10329017;28;20219;-85
2022/12/15 16:11:25;;;;;;;32.47;28.80;;;4.20;99.90;;;;;;10338064;28;20195;-86
2022/12/15 16:16:32;;;;;;;37.93;30.37;;;4.20;99.90;;;;;;10318877;28;20302;-82
2022/12/15 16:21:36;;;;;;;33.37;29.73;;;4.20;99.90;;;;;;10321022;28;20224;-86
2022/12/15 16:26:46;;;;;;;40.80;30.77;;;4.20;99.90;;;;;;10327043;28;20254;-86
2022/12/15 16:31:49;;;;;;;32.43;27.70;;;4.10;99.90;;;;;;10330559;28;20195;-85
2022/12/15 16:36:51;;;;;;;33.80;28.07;;;4.10;99.90;;;;;;10314666;28;20448;-86
2022/12/15 16:41:55;;;;;;;31.83;28.07;;;4.10;99.90;;;;;;10327886;28;20318;-86
2022/12/15 16:46:58;;;;;;;33.40;29.77;;;4.10;99.90;;;;;;10335837;28;20231;-84
2022/12/15 16:52:04;;;;;;;31.13;27.60;;;4.10;99.90;;;;;;10324453;28;20192;-81
2022/12/15 16:57:11;;;;;;;31.70;26.80;;;4.20;99.90;;;;;;10319121;28;20219;-84
2022/12/15 17:02:23;;;;;;;32.87;28.20;;;4.20;99.90;;;;;;10333840;28;20631;-81
2022/12/15 17:07:28;;;;;;;34.37;28.63;;;4.20;99.90;;;;;;10333678;28;20699;-81
2022/12/15 17:12:32;;;;;;;31.30;27.63;;;4.20;99.90;;;;;;10315805;28;20196;-86
2022/12/15 17:17:34;;;;;;;31.33;26.77;;;4.20;99.90;;;;;;10326656;28;20211;-86
2022/12/15 17:22:42;;;;;;;34.77;27.90;;;4.20;99.90;;;;;;10337586;28;20207;-83
2022/12/15 17:27:46;;;;;;;29.10;24.97;;;4.20;99.90;;;;;;10318292;28;20224;-84
2022/12/15 17:32:48;;;;;;;32.33;28.17;;;4.20;99.90;;;;;;10302398;28;20202;-82
2022/12/15 17:37:50;;;;;;;30.20;26.90;;;4.20;99.90;;;;;;10324366;28;20226;-82
2022/12/15 17:42:54;;;;;;;35.23;27.50;;;4.20;99.90;;;;;;10293801;28;20220;-79
2022/12/15 17:48:03;;;;;;;31.30;25.60;;;4.30;99.90;;;;;;10306373;28;20226;-81
2022/12/15 17:53:44;;;;;;;33.17;27.90;;;4.20;99.90;;;;;;10333583;28;20221;-79
2022/12/15 17:58:53;;;;;;;33.03;26.87;;;4.20;99.90;;;;;;10441979;23;20221;-78
2022/12/15 18:03:55;;;;;;;33.53;27.67;;;4.20;99.90;;;;;;10383560;28;20196;-78
2022/12/15 18:08:57;;;;;;;31.60;26.27;;;4.20;99.90;;;;;;10364899;28;20191;-79
2022/12/15 18:14:00;;;;;;;30.13;26.40;;;4.20;99.90;;;;;;10365359;28;20198;-80
2022/12/15 18:19:04;;;;;;;32.70;27.40;;;4.20;99.90;;;;;;10353829;28;20207;-79
2022/12/15 18:24:12;;;;;;;28.63;25.27;;;4.20;99.90;;;;;;10364947;28;20242;-81
2022/12/15 18:29:17;;;;;;;31.03;26.53;;;4.20;99.90;;;;;;10348085;28;20194;-79
2022/12/15 18:34:20;;;;;;;31.73;28.10;;;4.20;99.90;;;;;;10377603;28;20496;-78
2022/12/15 18:39:23;;;;;;;35.30;28.73;;;4.50;99.90;;;;;;10381134;28;20502;-79
2022/12/15 18:44:30;;;;;;;32.53;28.20;;;4.50;99.90;;;;;;10368907;28;20333;-81
2022/12/15 18:49:32;;;;;;;35.13;29.90;;;4.40;99.90;;;;;;10378139;28;20281;-79
2022/12/15 18:54:35;;;;;;;34.77;29.07;;;4.40;99.90;;;;;;10372174;28;20242;-79
2022/12/15 18:59:38;;;;;;;31.38;27.98;;;4.30;99.90;;;;;;10365551;28;20438;-78
2022/12/15 19:04:40;;;;;;;30.23;26.70;;;4.40;99.90;;;;;;10405962;28;20274;-78
2022/12/15 19:09:42;;;;;;;30.57;27.13;;;4.30;99.90;;;;;;10392237;28;20199;-76
2022/12/15 19:14:47;;;;;;;31.10;27.10;;;4.30;99.90;;;;;;10328366;28;20599;-78
2022/12/15 19:25:28;;;;;;;31.33;27.87;;;4.30;99.90;;;;;;10240692;28;20726;-78
2022/12/15 19:30:32;;;;;;;32.67;28.57;;;4.30;99.90;;;;;;10350144;28;20226;-79
2022/12/15 19:35:36;;;;;;;35.27;30.47;;;4.30;99.90;;;;;;10372758;28;20249;-78
2022/12/15 19:40:38;;;;;;;32.37;27.37;;;4.30;99.90;;;;;;10376498;28;20582;-79
2022/12/15 19:45:41;;;;;;;34.47;28.60;;;4.30;99.90;;;;;;10378652;28;20218;-79
2022/12/15 19:50:44;;;;;;;33.60;28.60;;;4.20;99.90;;;;;;10358640;28;20199;-78
2022/12/15 19:55:46;;;;;;;32.40;28.13;;;4.20;99.90;;;;;;10360304;28;20222;-79
2022/12/15 20:00:50;;;;;;;33.47;29.07;;;4.30;99.90;;;;;;10349734;28;20285;-80
2022/12/15 20:05:54;;;;;;;33.50;29.00;;;4.30;99.90;;;;;;10350280;28;20383;-80
2022/12/15 20:10:56;;;;;;;31.27;26.10;;;4.30;99.90;;;;;;10386297;28;20195;-80
2022/12/15 20:16:00;;;;;;;31.77;28.23;;;4.30;99.90;;;;;;10345866;28;20477;-80
2022/12/15 20:21:02;;;;;;;32.97;28.03;;;4.30;99.90;;;;;;10346952;28;20251;-79
2022/12/15 20:26:06;;;;;;;32.13;28.57;;;4.20;99.90;;;;;;10360911;28;20277;-80
2022/12/15 20:31:13;;;;;;;33.53;28.90;;;4.20;99.90;;;;;;10364440;28;20631;-79
2022/12/15 20:36:18;;;;;;;33.77;29.00;;;4.10;99.90;;;;;;10369581;28;20222;-79
2022/12/15 20:41:23;;;;;;;31.47;27.73;;;4.10;99.90;;;;;;10344526;28;20318;-78
2022/12/15 20:46:33;;;;;;;36.30;29.63;;;4.00;99.90;;;;;;10358187;28;20214;-80
2022/12/15 20:51:35;;;;;;;36.40;30.80;;;4.00;99.90;;;;;;10345987;28;20203;-80
2022/12/15 20:56:37;;;;;;;38.77;31.10;;;4.00;99.90;;;;;;10352784;28;20218;-80
2022/12/15 21:01:41;;;;;;;36.17;30.50;;;4.00;99.90;;;;;;10343081;28;20265;-79
2022/12/15 21:06:43;;;;;;;35.63;31.07;;;4.00;99.90;;;;;;10364206;28;20244;-79
2022/12/15 21:11:47;;;;;;;37.07;31.93;;;4.00;99.90;;;;;;10353410;28;20234;-78
2022/12/15 21:16:50;;;;;;;36.17;30.77;;;4.00;99.90;;;;;;10362385;28;20221;-79
2022/12/15 21:21:53;;;;;;;33.43;29.60;;;3.90;99.90;;;;;;10339781;28;20222;-80
2022/12/15 21:26:56;;;;;;;26.63;22.77;;;3.90;99.90;;;;;;10371980;28;20246;-79
2022/12/15 21:31:59;;;;;;;41.23;32.10;;;3.90;99.90;;;;;;10357699;28;20241;-79
2022/12/15 21:37:02;;;;;;;37.70;31.97;;;3.80;99.90;;;;;;10344262;28;20214;-78
2022/12/15 21:42:11;;;;;;;32.87;29.37;;;3.80;99.90;;;;;;10343707;28;20246;-79
2022/12/15 21:47:24;;;;;;;40.80;33.77;;;3.80;99.90;;;;;;10362145;28;20215;-79
2022/12/15 21:52:27;;;;;;;34.37;30.63;;;3.70;99.90;;;;;;10344584;28;20201;-79
2022/12/15 21:57:29;;;;;;;34.27;30.20;;;3.70;99.90;;;;;;10342569;28;20612;-78
2022/12/15 22:02:33;;;;;;;32.47;28.87;;;3.70;99.90;;;;;;10385335;28;20215;-79
2022/12/15 22:07:35;;;;;;;33.27;29.87;;;3.70;99.90;;;;;;10346839;28;20322;-79
2022/12/15 22:12:39;;;;;;;35.83;30.70;;;3.70;99.90;;;;;;10335595;28;21052;-79
2022/12/15 22:17:43;;;;;;;34.30;30.23;;;3.70;99.90;;;;;;10349692;28;20574;-79
2022/12/15 22:22:45;;;;;;;39.13;31.30;;;3.60;99.90;;;;;;10346713;28;20254;-79
2022/12/15 22:27:47;;;;;;;36.60;32.17;;;3.50;99.90;;;;;;10340422;28;20223;-79
2022/12/15 22:32:51;;;;;;;37.13;32.33;;;3.50;99.90;;;;;;10359619;28;20358;-79
2022/12/15 22:37:54;;;;;;;37.47;33.13;;;3.50;99.90;;;;;;10328492;28;20687;-77
2022/12/15 22:42:57;;;;;;;41.00;34.07;;;3.40;99.90;;;;;;10362774;28;20250;-81
2022/12/15 22:48:03;;;;;;;39.73;34.27;;;3.40;99.90;;;;;;10336123;28;20303;-80
2022/12/15 22:53:11;;;;;;;41.43;35.27;;;3.30;99.90;;;;;;10361116;28;20206;-79
2022/12/15 22:58:23;;;;;;;39.80;35.27;;;3.30;99.90;;;;;;10340680;28;20219;-80
2022/12/15 23:03:28;;;;;;;38.40;34.13;;;3.20;99.90;;;;;;10359755;28;20227;-80
2022/12/15 23:08:31;;;;;;;42.70;37.43;;;3.20;99.90;;;;;;10332142;28;20306;-80
2022/12/15 23:13:33;;;;;;;41.40;36.40;;;3.20;99.90;;;;;;10350080;28;20588;-80
2022/12/15 23:18:37;;;;;;;40.93;36.50;;;3.20;99.90;;;;;;10371478;28;20218;-81
2022/12/15 23:23:39;;;;;;;43.30;36.90;;;3.10;99.90;;;;;;10354024;28;20250;-81
2022/12/15 23:28:42;;;;;;;39.83;35.40;;;3.10;99.90;;;;;;10352726;28;20223;-80
2022/12/15 23:33:45;;;;;;;43.50;36.90;;;3.00;99.90;;;;;;10368959;28;20190;-80
2022/12/15 23:38:47;;;;;;;41.93;36.50;;;3.00;99.90;;;;;;10343065;28;20225;-79
2022/12/15 23:43:50;;;;;;;41.83;36.10;;;2.90;99.90;;;;;;10361224;28;20221;-79
2022/12/15 23:48:53;;;;;;;42.60;36.90;;;2.90;99.90;;;;;;10343439;28;20230;-77
2022/12/15 23:53:55;;;;;;;43.00;37.30;;;2.80;99.90;;;;;;10332210;28;20201;-77
2022/12/15 23:58:59;;;;;;;45.83;37.70;;;2.80;99.90;;;;;;10341762;28;20674;-77
